createdAt,value
2018-08-25T00:00:05.935Z,0
2018-08-25T00:01:07.311Z,0
2018-08-25T00:02:08.697Z,0
2018-08-25T00:03:10.080Z,0
2018-08-25T00:04:11.464Z,0
2018-08-25T00:05:12.859Z,0
2018-08-25T00:06:14.244Z,0
2018-08-25T00:07:15.638Z,0
2018-08-25T00:08:17.036Z,0
2018-08-25T00:09:18.411Z,0
2018-08-25T00:10:19.790Z,0
2018-08-25T00:11:21.176Z,0
2018-08-25T00:12:22.561Z,0
2018-08-25T00:13:23.952Z,0
2018-08-25T00:14:25.343Z,0
2018-08-25T00:15:26.732Z,0
2018-08-25T00:16:28.116Z,0
2018-08-25T00:17:29.498Z,0
2018-08-25T00:18:30.885Z,0
2018-08-25T00:19:32.270Z,0
2018-08-25T00:20:33.658Z,0
2018-08-25T00:21:35.047Z,0
2018-08-25T00:22:36.425Z,0
2018-08-25T00:23:37.809Z,0
2018-08-25T00:24:39.200Z,0
2018-08-25T00:25:40.586Z,0
2018-08-25T00:26:41.973Z,0
2018-08-25T00:27:43.359Z,0
2018-08-25T00:28:44.748Z,0
2018-08-25T00:29:46.134Z,0
2018-08-25T00:30:47.521Z,0
2018-08-25T00:31:48.899Z,0
2018-08-25T00:32:50.281Z,0
2018-08-25T00:33:51.668Z,0
2018-08-25T00:34:53.056Z,0
2018-08-25T00:35:54.438Z,0
2018-08-25T00:36:55.834Z,0
2018-08-25T00:37:57.218Z,0
2018-08-25T00:38:58.604Z,0
2018-08-25T00:39:59.993Z,0
2018-08-25T00:41:01.387Z,0
2018-08-25T00:42:02.767Z,0
2018-08-25T00:43:04.151Z,0
2018-08-25T00:44:05.528Z,0
2018-08-25T00:45:06.914Z,0
2018-08-25T00:46:08.299Z,0
2018-08-25T00:47:09.684Z,0
2018-08-25T00:48:11.065Z,0
2018-08-25T00:49:12.462Z,0
2018-08-25T00:50:13.854Z,0
2018-08-25T00:51:15.239Z,0
2018-08-25T00:52:16.623Z,0
2018-08-25T00:53:18.009Z,0
2018-08-25T00:54:19.394Z,0
2018-08-25T00:55:20.790Z,0
2018-08-25T00:56:22.168Z,0
2018-08-25T00:57:23.561Z,0
2018-08-25T00:58:24.935Z,0
2018-08-25T00:59:26.483Z,0
2018-08-25T01:00:27.702Z,0
2018-08-25T01:01:29.092Z,0
2018-08-25T01:02:30.480Z,0
2018-08-25T01:03:31.862Z,0
2018-08-25T01:04:33.245Z,0
2018-08-25T01:05:34.635Z,0
2018-08-25T01:06:36.012Z,0
2018-08-25T01:07:37.400Z,0
2018-08-25T01:08:38.792Z,0
2018-08-25T01:09:40.174Z,0
2018-08-25T01:10:41.550Z,0
2018-08-25T01:11:42.938Z,0
2018-08-25T01:12:44.320Z,0
2018-08-25T01:13:45.697Z,0
2018-08-25T01:14:47.082Z,0
2018-08-25T01:15:48.510Z,0
2018-08-25T01:16:49.829Z,0
2018-08-25T01:17:51.207Z,0
2018-08-25T01:18:52.591Z,0
2018-08-25T01:19:53.991Z,0
2018-08-25T01:20:55.375Z,0
2018-08-25T01:21:56.757Z,0
2018-08-25T01:22:58.141Z,0
2018-08-25T01:23:59.525Z,0
2018-08-25T01:25:00.932Z,0
2018-08-25T01:26:02.336Z,0
2018-08-25T01:27:03.709Z,0
2018-08-25T01:28:05.098Z,0
2018-08-25T01:29:06.491Z,0
2018-08-25T01:30:07.882Z,0
2018-08-25T01:31:09.810Z,0
2018-08-25T01:32:11.200Z,0
2018-08-25T01:33:12.588Z,0
2018-08-25T01:34:13.976Z,0
2018-08-25T01:35:15.358Z,0
2018-08-25T01:36:16.751Z,0
2018-08-25T01:37:18.130Z,0
2018-08-25T01:38:19.512Z,0
2018-08-25T01:39:20.909Z,0
2018-08-25T01:40:22.306Z,0
2018-08-25T01:41:23.703Z,0
2018-08-25T01:42:25.092Z,0
2018-08-25T01:43:26.473Z,0
2018-08-25T01:44:27.870Z,0
2018-08-25T01:45:29.238Z,0
2018-08-25T01:46:30.632Z,0
2018-08-25T01:47:32.020Z,0
2018-08-25T01:48:33.419Z,0
2018-08-25T01:49:35.403Z,0
2018-08-25T01:50:36.792Z,0
2018-08-25T01:51:38.187Z,0
2018-08-25T01:52:39.559Z,0
2018-08-25T01:53:40.931Z,0
2018-08-25T01:54:42.314Z,0
2018-08-25T01:55:43.697Z,0
2018-08-25T01:56:45.079Z,0
2018-08-25T01:57:46.472Z,0
2018-08-25T01:58:47.856Z,0
2018-08-25T01:59:49.231Z,0
2018-08-25T02:00:50.656Z,0
2018-08-25T02:01:52.010Z,0
2018-08-25T02:02:53.500Z,0
2018-08-25T02:03:54.736Z,0
2018-08-25T02:04:56.117Z,0
2018-08-25T02:05:57.500Z,0
2018-08-25T02:06:58.882Z,0
2018-08-25T02:08:00.270Z,0
2018-08-25T02:09:01.650Z,0
2018-08-25T02:10:03.032Z,0
2018-08-25T02:11:04.420Z,0
2018-08-25T02:12:05.808Z,0
2018-08-25T02:13:07.198Z,0
2018-08-25T02:14:08.580Z,0
2018-08-25T02:15:09.969Z,0
2018-08-25T02:16:11.354Z,0
2018-08-25T02:17:12.744Z,0
2018-08-25T02:18:14.122Z,0
2018-08-25T02:19:15.505Z,0
2018-08-25T02:20:16.889Z,0
2018-08-25T02:21:18.277Z,0
2018-08-25T02:22:19.653Z,0
2018-08-25T02:23:21.037Z,0
2018-08-25T02:24:22.423Z,0
2018-08-25T02:25:23.797Z,0
2018-08-25T02:26:25.183Z,0
2018-08-25T02:27:26.564Z,0
2018-08-25T02:28:27.953Z,0
2018-08-25T02:29:29.327Z,0
2018-08-25T02:30:31.273Z,0
2018-08-25T02:31:32.675Z,0
2018-08-25T02:32:34.054Z,0
2018-08-25T02:33:35.444Z,0
2018-08-25T02:34:36.830Z,0
2018-08-25T02:35:38.222Z,0
2018-08-25T02:36:39.605Z,0
2018-08-25T02:37:40.984Z,0
2018-08-25T02:38:42.397Z,0
2018-08-25T02:39:43.703Z,0
2018-08-25T02:40:45.084Z,0
2018-08-25T02:41:46.469Z,0
2018-08-25T02:42:47.848Z,0
2018-08-25T02:43:49.229Z,0
2018-08-25T02:44:50.615Z,0
2018-08-25T02:45:51.998Z,0
2018-08-25T02:46:53.385Z,0
2018-08-25T02:47:54.773Z,0
2018-08-25T02:48:56.154Z,0
2018-08-25T02:49:57.545Z,0
2018-08-25T02:50:58.923Z,0
2018-08-25T02:52:00.310Z,0
2018-08-25T02:53:01.694Z,0
2018-08-25T02:54:03.080Z,0
2018-08-25T02:55:04.454Z,0
2018-08-25T02:56:05.833Z,0
2018-08-25T02:57:07.225Z,0
2018-08-25T02:58:08.606Z,0
2018-08-25T02:59:09.984Z,0
2018-08-25T03:00:11.367Z,0
2018-08-25T03:01:12.756Z,0
2018-08-25T03:02:14.142Z,0
2018-08-25T03:03:15.517Z,0
2018-08-25T03:04:16.893Z,0
2018-08-25T03:05:18.285Z,0
2018-08-25T03:06:19.664Z,0
2018-08-25T03:07:21.045Z,0
2018-08-25T03:08:22.430Z,0
2018-08-25T03:09:23.813Z,0
2018-08-25T03:10:25.193Z,0
2018-08-25T03:11:26.569Z,0
2018-08-25T03:12:27.954Z,0
2018-08-25T03:13:29.337Z,0
2018-08-25T03:14:30.724Z,0
2018-08-25T03:15:32.140Z,0
2018-08-25T03:16:33.548Z,0
2018-08-25T03:17:34.930Z,0
2018-08-25T03:18:36.316Z,0
2018-08-25T03:19:37.716Z,0
2018-08-25T03:20:39.100Z,0
2018-08-25T03:21:40.490Z,0
2018-08-25T03:22:41.876Z,0
2018-08-25T03:23:43.267Z,0
2018-08-25T03:24:44.650Z,0
2018-08-25T03:25:46.038Z,0
2018-08-25T03:26:47.420Z,0
2018-08-25T03:27:48.814Z,0
2018-08-25T03:28:50.204Z,0
2018-08-25T03:29:51.588Z,0
2018-08-25T03:30:52.978Z,0
2018-08-25T03:31:54.361Z,0
2018-08-25T03:32:55.742Z,0
2018-08-25T03:33:57.121Z,0
2018-08-25T03:34:58.515Z,0
2018-08-25T03:35:59.895Z,0
2018-08-25T03:37:01.269Z,0
2018-08-25T03:38:02.659Z,0
2018-08-25T03:39:04.041Z,0
2018-08-25T03:40:05.413Z,0
2018-08-25T03:41:06.797Z,0
2018-08-25T03:42:08.181Z,0
2018-08-25T03:43:09.557Z,0
2018-08-25T03:44:10.942Z,0
2018-08-25T03:45:12.330Z,0
2018-08-25T03:46:13.707Z,4
2018-08-25T03:47:15.093Z,4
2018-08-25T03:48:16.475Z,4
2018-08-25T03:49:17.853Z,0
2018-08-25T03:50:19.236Z,0
2018-08-25T03:51:20.621Z,4
2018-08-25T03:52:22.014Z,4
2018-08-25T03:53:23.393Z,4
2018-08-25T03:54:24.781Z,4
2018-08-25T03:55:26.221Z,8
2018-08-25T03:56:27.556Z,4
2018-08-25T03:57:28.939Z,4
2018-08-25T03:58:30.322Z,4
2018-08-25T03:59:31.707Z,4
2018-08-25T04:00:33.096Z,8
2018-08-25T04:01:34.513Z,8
2018-08-25T04:02:35.871Z,4
2018-08-25T04:03:37.252Z,8
2018-08-25T04:04:38.636Z,8
2018-08-25T04:05:40.015Z,8
2018-08-25T04:06:41.406Z,12
2018-08-25T04:07:42.786Z,8
2018-08-25T04:08:44.167Z,12
2018-08-25T04:09:45.549Z,12
2018-08-25T04:10:46.943Z,12
2018-08-25T04:11:48.317Z,12
2018-08-25T04:12:49.702Z,12
2018-08-25T04:13:51.083Z,16
2018-08-25T04:14:52.566Z,20
2018-08-25T04:15:53.809Z,20
2018-08-25T04:16:55.195Z,24
2018-08-25T04:17:56.583Z,24
2018-08-25T04:18:57.962Z,24
2018-08-25T04:19:59.346Z,28
2018-08-25T04:21:00.726Z,28
2018-08-25T04:22:02.157Z,32
2018-08-25T04:23:03.494Z,36
2018-08-25T04:24:04.884Z,40
2018-08-25T04:25:06.266Z,40
2018-08-25T04:26:07.644Z,44
2018-08-25T04:27:09.028Z,44
2018-08-25T04:28:11.006Z,48
2018-08-25T04:29:12.400Z,52
2018-08-25T04:30:13.786Z,56
2018-08-25T04:31:15.161Z,56
2018-08-25T04:32:16.547Z,60
2018-08-25T04:33:17.971Z,64
2018-08-25T04:34:19.314Z,64
2018-08-25T04:35:20.694Z,72
2018-08-25T04:36:22.078Z,76
2018-08-25T04:37:23.465Z,76
2018-08-25T04:38:24.851Z,84
2018-08-25T04:39:26.237Z,88
2018-08-25T04:40:27.623Z,92
2018-08-25T04:41:29.013Z,100
2018-08-25T04:42:30.397Z,104
2018-08-25T04:43:31.778Z,104
2018-08-25T04:44:33.159Z,108
2018-08-25T04:45:34.549Z,116
2018-08-25T04:46:35.939Z,120
2018-08-25T04:47:37.326Z,120
2018-08-25T04:48:38.714Z,124
2018-08-25T04:49:40.102Z,124
2018-08-25T04:50:41.480Z,128
2018-08-25T04:51:42.864Z,132
2018-08-25T04:52:44.241Z,132
2018-08-25T04:53:46.180Z,136
2018-08-25T04:54:47.562Z,140
2018-08-25T04:55:48.946Z,148
2018-08-25T04:56:50.320Z,152
2018-08-25T04:57:51.707Z,156
2018-08-25T04:58:53.093Z,160
2018-08-25T04:59:54.480Z,160
2018-08-25T05:00:55.865Z,168
2018-08-25T05:01:57.341Z,172
2018-08-25T05:02:58.588Z,176
2018-08-25T05:03:59.973Z,184
2018-08-25T05:05:01.369Z,188
2018-08-25T05:06:02.746Z,188
2018-08-25T05:07:04.140Z,200
2018-08-25T05:08:05.520Z,208
2018-08-25T05:09:06.906Z,212
2018-08-25T05:10:08.299Z,220
2018-08-25T05:11:09.684Z,232
2018-08-25T05:12:11.057Z,240
2018-08-25T05:13:12.455Z,240
2018-08-25T05:14:13.834Z,240
2018-08-25T05:15:15.225Z,240
2018-08-25T05:16:16.609Z,232
2018-08-25T05:17:17.995Z,236
2018-08-25T05:18:19.384Z,240
2018-08-25T05:19:20.781Z,244
2018-08-25T05:20:22.170Z,248
2018-08-25T05:21:23.566Z,248
2018-08-25T05:22:24.948Z,252
2018-08-25T05:23:26.344Z,256
2018-08-25T05:24:27.722Z,256
2018-08-25T05:25:29.131Z,260
2018-08-25T05:26:30.517Z,280
2018-08-25T05:27:31.907Z,300
2018-08-25T05:28:33.292Z,324
2018-08-25T05:29:34.683Z,348
2018-08-25T05:30:36.065Z,380
2018-08-25T05:31:37.459Z,412
2018-08-25T05:32:38.849Z,436
2018-08-25T05:33:40.241Z,456
2018-08-25T05:34:41.637Z,504
2018-08-25T05:35:43.020Z,528
2018-08-25T05:36:44.405Z,568
2018-08-25T05:37:45.788Z,604
2018-08-25T05:38:47.171Z,628
2018-08-25T05:39:48.551Z,652
2018-08-25T05:40:49.939Z,664
2018-08-25T05:41:51.328Z,644
2018-08-25T05:42:52.720Z,612
2018-08-25T05:43:54.116Z,580
2018-08-25T05:44:55.504Z,568
2018-08-25T05:45:57.444Z,580
2018-08-25T05:46:58.839Z,600
2018-08-25T05:48:00.225Z,624
2018-08-25T05:49:01.619Z,632
2018-08-25T05:50:02.997Z,628
2018-08-25T05:51:04.396Z,624
2018-08-25T05:52:05.783Z,636
2018-08-25T05:53:07.171Z,644
2018-08-25T05:54:08.553Z,672
2018-08-25T05:55:09.943Z,696
2018-08-25T05:56:11.325Z,700
2018-08-25T05:57:12.713Z,692
2018-08-25T05:58:14.098Z,668
2018-08-25T05:59:15.491Z,648
2018-08-25T06:00:16.885Z,640
2018-08-25T06:01:18.306Z,648
2018-08-25T06:02:19.706Z,664
2018-08-25T06:03:21.090Z,664
2018-08-25T06:04:22.500Z,656
2018-08-25T06:05:23.902Z,656
2018-08-25T06:06:25.312Z,652
2018-08-25T06:07:26.670Z,644
2018-08-25T06:08:28.071Z,672
2018-08-25T06:09:29.456Z,716
2018-08-25T06:10:30.842Z,764
2018-08-25T06:11:32.226Z,796
2018-08-25T06:12:33.612Z,808
2018-08-25T06:13:35.078Z,844
2018-08-25T06:14:36.384Z,872
2018-08-25T06:15:37.785Z,904
2018-08-25T06:16:39.164Z,944
2018-08-25T06:17:40.628Z,964
2018-08-25T06:18:41.900Z,960
2018-08-25T06:19:43.285Z,932
2018-08-25T06:20:44.679Z,932
2018-08-25T06:21:46.071Z,936
2018-08-25T06:22:47.478Z,952
2018-08-25T06:23:48.873Z,960
2018-08-25T06:24:50.263Z,996
2018-08-25T06:25:51.648Z,1004
2018-08-25T06:26:53.041Z,1020
2018-08-25T06:27:54.433Z,1056
2018-08-25T06:28:55.823Z,1108
2018-08-25T06:29:57.214Z,1164
2018-08-25T06:30:58.606Z,1204
2018-08-25T06:31:59.991Z,1236
2018-08-25T06:33:01.387Z,1232
2018-08-25T06:34:02.781Z,1260
2018-08-25T06:35:04.179Z,1292
2018-08-25T06:36:05.573Z,1308
2018-08-25T06:37:06.943Z,1300
2018-08-25T06:38:08.330Z,1256
2018-08-25T06:39:09.714Z,1224
2018-08-25T06:40:11.059Z,1220
2018-08-25T06:41:12.448Z,1260
2018-08-25T06:42:13.846Z,1324
2018-08-25T06:43:15.234Z,1500
2018-08-25T06:44:16.616Z,1792
2018-08-25T06:45:18.023Z,2028
2018-08-25T06:46:19.412Z,2000
2018-08-25T06:47:20.799Z,2072
2018-08-25T06:48:22.187Z,2036
2018-08-25T06:49:24.483Z,2132
2018-08-25T06:50:25.877Z,2236
2018-08-25T06:51:27.256Z,2332
2018-08-25T06:52:28.647Z,2424
2018-08-25T06:53:30.047Z,2500
2018-08-25T06:54:31.446Z,2552
2018-08-25T06:55:32.841Z,2564
2018-08-25T06:56:34.227Z,2548
2018-08-25T06:57:35.621Z,2464
2018-08-25T06:58:37.018Z,2268
2018-08-25T06:59:38.555Z,2316
2018-08-25T07:00:39.801Z,2380
2018-08-25T07:01:41.186Z,2328
2018-08-25T07:02:42.580Z,2284
2018-08-25T07:03:43.967Z,2216
2018-08-25T07:04:45.360Z,2208
2018-08-25T07:05:46.754Z,2252
2018-08-25T07:06:48.144Z,2368
2018-08-25T07:07:49.537Z,2528
2018-08-25T07:08:50.926Z,2748
2018-08-25T07:09:52.314Z,2816
2018-08-25T07:10:53.698Z,2844
2018-08-25T07:11:55.092Z,2868
2018-08-25T07:12:56.575Z,2852
2018-08-25T07:13:57.874Z,2860
2018-08-25T07:14:59.270Z,2720
2018-08-25T07:16:00.660Z,2740
2018-08-25T07:17:02.049Z,2620
2018-08-25T07:18:03.440Z,2648
2018-08-25T07:19:04.856Z,2644
2018-08-25T07:20:06.231Z,2628
2018-08-25T07:21:07.619Z,2600
2018-08-25T07:22:09.013Z,2404
2018-08-25T07:23:10.429Z,2324
2018-08-25T07:24:11.809Z,2180
2018-08-25T07:25:13.201Z,2108
2018-08-25T07:26:15.502Z,2028
2018-08-25T07:27:16.839Z,1840
2018-08-25T07:28:18.265Z,1700
2018-08-25T07:29:19.660Z,1572
2018-08-25T07:30:21.062Z,1408
2018-08-25T07:31:22.461Z,1408
2018-08-25T07:32:23.848Z,1456
2018-08-25T07:33:25.242Z,1556
2018-08-25T07:34:26.628Z,1540
2018-08-25T07:35:28.012Z,1620
2018-08-25T07:36:29.403Z,1696
2018-08-25T07:37:30.780Z,1888
2018-08-25T07:38:32.179Z,2008
2018-08-25T07:39:33.559Z,1996
2018-08-25T07:40:34.962Z,2100
2018-08-25T07:41:36.352Z,2196
2018-08-25T07:42:37.740Z,2244
2018-08-25T07:43:39.135Z,2148
2018-08-25T07:44:40.531Z,2180
2018-08-25T07:45:41.927Z,2340
2018-08-25T07:46:43.318Z,2316
2018-08-25T07:47:44.713Z,2744
2018-08-25T07:48:46.138Z,3080
2018-08-25T07:49:47.507Z,3208
2018-08-25T07:50:48.901Z,3264
2018-08-25T07:51:50.286Z,3288
2018-08-25T07:52:51.691Z,3316
2018-08-25T07:53:53.149Z,3348
2018-08-25T07:54:54.493Z,3440
2018-08-25T07:55:55.873Z,3488
2018-08-25T07:56:57.268Z,3500
2018-08-25T07:57:58.665Z,3452
2018-08-25T07:59:00.058Z,3528
2018-08-25T08:00:01.390Z,3548
2018-08-25T08:01:02.794Z,3628
2018-08-25T08:02:04.182Z,3668
2018-08-25T08:03:05.576Z,3848
2018-08-25T08:04:06.978Z,3804
2018-08-25T08:05:08.369Z,3868
2018-08-25T08:06:09.758Z,3668
2018-08-25T08:07:11.150Z,3368
2018-08-25T08:08:12.546Z,3356
2018-08-25T08:09:13.933Z,3092
2018-08-25T08:10:15.340Z,3088
2018-08-25T08:11:16.730Z,3052
2018-08-25T08:12:18.233Z,3544
2018-08-25T08:13:19.481Z,3588
2018-08-25T08:14:20.869Z,3796
2018-08-25T08:15:22.264Z,3612
2018-08-25T08:16:23.627Z,3664
2018-08-25T08:17:25.020Z,3528
2018-08-25T08:18:26.415Z,3428
2018-08-25T08:19:27.809Z,3336
2018-08-25T08:20:29.203Z,3264
2018-08-25T08:21:30.544Z,3092
2018-08-25T08:22:31.928Z,3112
2018-08-25T08:23:33.339Z,3192
2018-08-25T08:24:34.718Z,3312
2018-08-25T08:25:36.128Z,3756
2018-08-25T08:26:37.512Z,3368
2018-08-25T08:27:38.908Z,3660
2018-08-25T08:28:40.308Z,3684
2018-08-25T08:29:41.701Z,3660
2018-08-25T08:30:43.102Z,3624
2018-08-25T08:31:44.484Z,3572
2018-08-25T08:32:45.873Z,3624
2018-08-25T08:33:47.272Z,3580
2018-08-25T08:34:48.672Z,3576
2018-08-25T08:35:50.063Z,3580
2018-08-25T08:36:51.453Z,3676
2018-08-25T08:37:52.854Z,3772
2018-08-25T08:38:54.251Z,4072
2018-08-25T08:39:55.651Z,4072
2018-08-25T08:40:57.047Z,3792
2018-08-25T08:41:58.439Z,3348
2018-08-25T08:42:59.831Z,3328
2018-08-25T08:44:01.229Z,3340
2018-08-25T08:45:02.626Z,3356
2018-08-25T08:46:04.025Z,2932
2018-08-25T08:47:05.410Z,2996
2018-08-25T08:48:06.818Z,2992
2018-08-25T08:49:08.220Z,2804
2018-08-25T08:50:09.621Z,2684
2018-08-25T08:51:11.007Z,2524
2018-08-25T08:52:12.405Z,2420
2018-08-25T08:53:13.795Z,2440
2018-08-25T08:54:15.194Z,2312
2018-08-25T08:55:16.587Z,2284
2018-08-25T08:56:17.976Z,2296
2018-08-25T08:57:19.357Z,2152
2018-08-25T08:58:20.767Z,1916
2018-08-25T08:59:22.145Z,1772
2018-08-25T09:00:23.540Z,1668
2018-08-25T09:01:24.928Z,1624
2018-08-25T09:02:26.308Z,1544
2018-08-25T09:03:27.770Z,1448
2018-08-25T09:04:29.111Z,1380
2018-08-25T09:05:30.517Z,1424
2018-08-25T09:06:31.909Z,1416
2018-08-25T09:07:33.292Z,1480
2018-08-25T09:08:34.685Z,1460
2018-08-25T09:09:36.066Z,1304
2018-08-25T09:10:37.454Z,1200
2018-08-25T09:11:38.862Z,1224
2018-08-25T09:12:40.209Z,1272
2018-08-25T09:13:41.599Z,1220
2018-08-25T09:14:42.993Z,1132
2018-08-25T09:15:44.381Z,1036
2018-08-25T09:16:45.776Z,996
2018-08-25T09:17:47.168Z,1004
2018-08-25T09:18:48.576Z,940
2018-08-25T09:19:49.975Z,1012
2018-08-25T09:20:51.377Z,884
2018-08-25T09:21:52.786Z,1016
2018-08-25T09:22:54.180Z,1104
2018-08-25T09:23:55.574Z,1268
2018-08-25T09:24:56.963Z,1208
2018-08-25T09:25:58.348Z,1224
2018-08-25T09:27:00.937Z,1324
2018-08-25T09:28:02.332Z,1616
2018-08-25T09:29:03.726Z,1844
2018-08-25T09:30:05.121Z,2076
2018-08-25T09:31:06.507Z,2140
2018-08-25T09:32:07.892Z,2460
2018-08-25T09:33:09.293Z,2708
2018-08-25T09:34:10.682Z,2416
2018-08-25T09:35:12.066Z,2536
2018-08-25T09:36:13.521Z,2768
2018-08-25T09:37:14.874Z,3328
2018-08-25T09:38:16.283Z,3856
2018-08-25T09:39:17.665Z,4608
2018-08-25T09:40:19.044Z,4740
2018-08-25T09:41:20.452Z,4540
2018-08-25T09:42:21.838Z,4304
2018-08-25T09:43:23.227Z,2720
2018-08-25T09:44:24.630Z,2576
2018-08-25T09:45:26.024Z,2448
2018-08-25T09:46:27.410Z,2788
2018-08-25T09:47:28.807Z,3660
2018-08-25T09:48:30.197Z,4188
2018-08-25T09:49:31.594Z,5372
2018-08-25T09:50:32.984Z,5456
2018-08-25T09:51:34.382Z,3936
2018-08-25T09:52:35.776Z,4128
2018-08-25T09:53:37.231Z,4800
2018-08-25T09:54:38.571Z,5008
2018-08-25T09:55:39.965Z,5820
2018-08-25T09:56:41.374Z,5000
2018-08-25T09:57:42.751Z,5932
2018-08-25T09:58:44.161Z,6396
2018-08-25T09:59:45.550Z,6396
2018-08-25T10:00:46.938Z,7228
2018-08-25T10:01:48.331Z,7016
2018-08-25T10:02:49.718Z,6704
2018-08-25T10:03:51.114Z,6884
2018-08-25T10:04:52.511Z,6456
2018-08-25T10:05:53.917Z,6380
2018-08-25T10:06:55.309Z,35424
2018-08-25T10:07:56.705Z,5736
2018-08-25T10:08:58.101Z,5976
2018-08-25T10:09:59.505Z,29568
2018-08-25T10:11:00.976Z,5784
2018-08-25T10:12:02.301Z,4320
2018-08-25T10:13:03.694Z,5596
2018-08-25T10:14:05.091Z,3572
2018-08-25T10:15:06.490Z,3420
2018-08-25T10:16:07.884Z,18720
2018-08-25T10:17:09.278Z,27456
2018-08-25T10:18:10.688Z,5292
2018-08-25T10:19:12.079Z,3144
2018-08-25T10:20:13.478Z,2572
2018-08-25T10:21:14.867Z,2472
2018-08-25T10:22:16.265Z,1944
2018-08-25T10:23:17.692Z,1768
2018-08-25T10:24:19.062Z,1732
2018-08-25T10:25:20.460Z,1792
2018-08-25T10:26:21.850Z,1720
2018-08-25T10:27:23.238Z,1556
2018-08-25T10:28:24.632Z,1248
2018-08-25T10:29:26.027Z,1132
2018-08-25T10:30:27.420Z,1140
2018-08-25T10:31:28.814Z,1124
2018-08-25T10:32:30.211Z,1052
2018-08-25T10:33:31.598Z,952
2018-08-25T10:34:32.991Z,932
2018-08-25T10:35:34.433Z,832
2018-08-25T10:36:35.773Z,832
2018-08-25T10:37:37.171Z,900
2018-08-25T10:38:38.560Z,952
2018-08-25T10:39:39.952Z,812
2018-08-25T10:40:41.351Z,744
2018-08-25T10:41:42.795Z,712
2018-08-25T10:42:44.136Z,680
2018-08-25T10:43:45.524Z,596
2018-08-25T10:44:46.931Z,540
2018-08-25T10:45:48.315Z,520
2018-08-25T10:46:49.712Z,476
2018-08-25T10:47:51.121Z,444
2018-08-25T10:48:52.520Z,404
2018-08-25T10:49:53.899Z,400
2018-08-25T10:50:55.296Z,412
2018-08-25T10:51:56.692Z,412
2018-08-25T10:52:58.089Z,416
2018-08-25T10:53:59.604Z,420
2018-08-25T10:55:00.888Z,440
2018-08-25T10:56:02.287Z,504
2018-08-25T10:57:03.681Z,496
2018-08-25T10:58:05.077Z,436
2018-08-25T10:59:06.481Z,416
2018-08-25T11:00:07.958Z,420
2018-08-25T11:01:09.354Z,412
2018-08-25T11:02:10.629Z,404
2018-08-25T11:03:12.031Z,428
2018-08-25T11:04:13.400Z,492
2018-08-25T11:05:14.804Z,744
2018-08-25T11:06:16.197Z,1188
2018-08-25T11:07:17.613Z,1332
2018-08-25T11:08:19.005Z,3324
2018-08-25T11:09:20.389Z,3020
2018-08-25T11:10:21.788Z,3556
2018-08-25T11:11:23.148Z,4108
2018-08-25T11:12:24.500Z,6556
2018-08-25T11:13:25.901Z,40224
2018-08-25T11:14:27.250Z,42400
2018-08-25T11:15:28.607Z,25536
2018-08-25T11:16:30.058Z,20640
2018-08-25T11:17:31.314Z,16192
2018-08-25T11:18:32.679Z,27200
2018-08-25T11:19:34.030Z,30752
2018-08-25T11:20:35.382Z,31072
2018-08-25T11:21:36.749Z,4924
2018-08-25T11:22:38.090Z,22496
2018-08-25T11:23:39.510Z,13040
2018-08-25T11:24:40.824Z,37728
2018-08-25T11:25:42.210Z,33568
2018-08-25T11:26:43.604Z,30400
2018-08-25T11:27:45.007Z,9360
2018-08-25T11:28:46.405Z,20416
2018-08-25T11:29:47.800Z,5240
2018-08-25T11:30:49.214Z,4900
2018-08-25T11:31:50.609Z,4824
2018-08-25T11:32:52.006Z,452
2018-08-25T11:33:53.398Z,5292
2018-08-25T11:34:54.794Z,4684
2018-08-25T11:35:56.199Z,4452
2018-08-25T11:36:57.595Z,4388
2018-08-25T11:37:59.026Z,4444
2018-08-25T11:39:00.403Z,4492
2018-08-25T11:40:01.801Z,5044
2018-08-25T11:41:03.195Z,4580
2018-08-25T11:42:04.597Z,5228
2018-08-25T11:43:05.989Z,4652
2018-08-25T11:44:07.467Z,5688
2018-08-25T11:45:08.793Z,10976
2018-08-25T11:46:10.150Z,6060
2018-08-25T11:47:11.501Z,3792
2018-08-25T11:48:12.902Z,4452
2018-08-25T11:49:14.299Z,2464
2018-08-25T11:50:15.720Z,1736
2018-08-25T11:51:17.117Z,1616
2018-08-25T11:52:18.530Z,1716
2018-08-25T11:53:19.916Z,1760
2018-08-25T11:54:21.311Z,1800
2018-08-25T11:55:22.695Z,1720
2018-08-25T11:56:24.089Z,1508
2018-08-25T11:57:25.491Z,1348
2018-08-25T11:58:26.890Z,1240
2018-08-25T11:59:28.245Z,1112
2018-08-25T12:00:29.605Z,1076
2018-08-25T12:01:31.007Z,1224
2018-08-25T12:02:32.362Z,1216
2018-08-25T12:03:33.797Z,1164
2018-08-25T12:04:35.091Z,1100
2018-08-25T12:05:36.484Z,1152
2018-08-25T12:06:37.835Z,1192
2018-08-25T12:07:39.228Z,1124
2018-08-25T12:08:40.611Z,940
2018-08-25T12:09:42.013Z,816
2018-08-25T12:10:43.407Z,660
2018-08-25T12:11:44.797Z,536
2018-08-25T12:12:46.193Z,580
2018-08-25T12:13:47.579Z,580
2018-08-25T12:14:48.970Z,548
2018-08-25T12:15:50.374Z,508
2018-08-25T12:16:51.772Z,476
2018-08-25T12:17:53.158Z,496
2018-08-25T12:18:54.550Z,464
2018-08-25T12:19:55.950Z,380
2018-08-25T12:20:57.339Z,332
2018-08-25T12:21:58.732Z,316
2018-08-25T12:23:00.135Z,292
2018-08-25T12:24:01.559Z,336
2018-08-25T12:25:02.934Z,368
2018-08-25T12:26:04.326Z,440
2018-08-25T12:27:05.719Z,544
2018-08-25T12:28:07.115Z,644
2018-08-25T12:29:08.461Z,656
2018-08-25T12:30:09.865Z,736
2018-08-25T12:31:11.247Z,976
2018-08-25T12:32:12.660Z,1180
2018-08-25T12:33:14.053Z,1684
2018-08-25T12:34:15.440Z,1924
2018-08-25T12:35:16.791Z,2056
2018-08-25T12:36:18.185Z,1920
2018-08-25T12:37:19.574Z,1976
2018-08-25T12:38:20.975Z,1852
2018-08-25T12:39:22.375Z,1724
2018-08-25T12:40:23.753Z,1592
2018-08-25T12:41:25.153Z,1516
2018-08-25T12:42:26.563Z,1452
2018-08-25T12:43:27.941Z,1384
2018-08-25T12:44:29.312Z,1316
2018-08-25T12:45:30.704Z,1276
2018-08-25T12:46:32.098Z,1232
2018-08-25T12:47:33.458Z,1176
2018-08-25T12:48:34.849Z,1128
2018-08-25T12:49:36.250Z,1164
2018-08-25T12:50:37.652Z,1100
2018-08-25T12:51:39.014Z,1100
2018-08-25T12:52:40.356Z,1100
2018-08-25T12:53:41.763Z,1204
2018-08-25T12:54:43.118Z,1248
2018-08-25T12:55:44.527Z,1208
2018-08-25T12:56:45.924Z,1152
2018-08-25T12:57:47.313Z,1188
2018-08-25T12:58:48.719Z,1228
2018-08-25T12:59:50.122Z,1356
2018-08-25T13:00:51.525Z,1468
2018-08-25T13:01:52.864Z,2072
2018-08-25T13:02:54.232Z,3456
2018-08-25T13:03:55.636Z,2616
2018-08-25T13:04:57.038Z,3604
2018-08-25T13:05:58.423Z,3156
2018-08-25T13:06:59.805Z,3352
2018-08-25T13:08:01.205Z,3324
2018-08-25T13:09:03.325Z,3396
2018-08-25T13:10:04.715Z,3416
2018-08-25T13:11:06.107Z,3356
2018-08-25T13:12:07.516Z,3280
2018-08-25T13:13:09.029Z,3384
2018-08-25T13:14:10.308Z,3368
2018-08-25T13:15:11.702Z,3384
2018-08-25T13:16:13.096Z,3304
2018-08-25T13:17:14.493Z,3204
2018-08-25T13:18:15.898Z,2824
2018-08-25T13:19:17.283Z,2536
2018-08-25T13:20:18.677Z,2844
2018-08-25T13:21:20.078Z,2904
2018-08-25T13:22:21.483Z,2784
2018-08-25T13:23:22.912Z,2772
2018-08-25T13:24:24.282Z,2316
2018-08-25T13:25:25.682Z,2428
2018-08-25T13:26:27.119Z,2348
2018-08-25T13:27:28.528Z,2484
2018-08-25T13:28:29.927Z,2484
2018-08-25T13:29:31.311Z,3052
2018-08-25T13:30:32.721Z,2664
2018-08-25T13:31:34.107Z,2624
2018-08-25T13:32:35.504Z,2396
2018-08-25T13:33:36.901Z,2384
2018-08-25T13:34:38.291Z,2308
2018-08-25T13:35:39.683Z,2412
2018-08-25T13:36:41.078Z,2268
2018-08-25T13:37:42.474Z,2144
2018-08-25T13:38:43.877Z,2268
2018-08-25T13:39:45.266Z,2212
2018-08-25T13:40:49.618Z,2308
2018-08-25T13:41:50.964Z,2308
2018-08-25T13:42:52.356Z,2620
2018-08-25T13:43:53.746Z,2484
2018-08-25T13:44:55.352Z,2444
2018-08-25T13:45:56.754Z,2268
2018-08-25T13:46:58.416Z,2124
2018-08-25T13:47:59.798Z,1916
2018-08-25T13:49:01.203Z,1736
2018-08-25T13:50:02.886Z,1264
2018-08-25T13:51:04.355Z,1096
2018-08-25T13:52:05.675Z,1188
2018-08-25T13:53:07.157Z,1020
2018-08-25T13:54:08.557Z,816
2018-08-25T13:55:10.155Z,868
2018-08-25T13:56:11.547Z,940
2018-08-25T13:57:13.666Z,744
2018-08-25T13:58:15.077Z,592
2018-08-25T13:59:16.470Z,512
2018-08-25T14:00:17.878Z,468
2018-08-25T14:01:19.371Z,484
2018-08-25T14:02:20.765Z,668
2018-08-25T14:03:22.176Z,1220
2018-08-25T14:04:24.933Z,1316
2018-08-25T14:05:26.338Z,1140
2018-08-25T14:06:27.728Z,1152
2018-08-25T14:07:29.123Z,1164
2018-08-25T14:08:30.643Z,1520